sensor_id;sensor_type;location;lat;lon;timestamp;P1;durP1;ratioP1;P2;durP2;ratioP2
70444;SDS011;57902;49.638;11.070;2022-12-05T00:03:38;24.13;;;9.32;;
70444;SDS011;57902;49.638;11.070;2022-12-05T00:06:05;25.88;;;9.52;;
70444;SDS011;57902;49.638;11.070;2022-12-05T00:08:31;23.38;;;9.55;;
70444;SDS011;57902;49.638;11.070;2022-12-05T00:10:58;33.53;;;10.30;;
70444;SDS011;57902;49.638;11.070;2022-12-05T00:13:24;23.70;;;9.15;;
70444;SDS011;57902;49.638;11.070;2022-12-05T00:15:50;23.90;;;10.07;;
70444;SDS011;57902;49.638;11.070;2022-12-05T00:18:17;23.40;;;9.95;;
70444;SDS011;57902;49.638;11.070;2022-12-05T00:20:44;30.10;;;9.77;;
70444;SDS011;57902;49.638;11.070;2022-12-05T00:23:11;23.90;;;9.98;;
70444;SDS011;57902;49.638;11.070;2022-12-05T00:25:37;27.00;;;10.40;;
70444;SDS011;57902;49.638;11.070;2022-12-05T00:28:07;25.98;;;10.07;;
70444;SDS011;57902;49.638;11.070;2022-12-05T00:30:33;26.00;;;9.77;;
70444;SDS011;57902;49.638;11.070;2022-12-05T00:33:00;26.02;;;9.65;;
70444;SDS011;57902;49.638;11.070;2022-12-05T00:35:26;24.77;;;9.73;;
70444;SDS011;57902;49.638;11.070;2022-12-05T00:37:52;27.60;;;10.60;;
70444;SDS011;57902;49.638;11.070;2022-12-05T00:40:19;30.65;;;10.75;;
70444;SDS011;57902;49.638;11.070;2022-12-05T00:42:45;25.10;;;10.35;;
70444;SDS011;57902;49.638;11.070;2022-12-05T00:45:17;25.08;;;9.07;;
70444;SDS011;57902;49.638;11.070;2022-12-05T00:47:43;26.77;;;10.02;;
70444;SDS011;57902;49.638;11.070;2022-12-05T00:50:10;25.88;;;10.32;;
70444;SDS011;57902;49.638;11.070;2022-12-05T00:52:37;27.77;;;10.27;;
70444;SDS011;57902;49.638;11.070;2022-12-05T00:55:03;25.90;;;10.13;;
70444;SDS011;57902;49.638;11.070;2022-12-05T00:57:30;26.08;;;10.10;;
70444;SDS011;57902;49.638;11.070;2022-12-05T00:59:57;25.20;;;10.95;;
70444;SDS011;57902;49.638;11.070;2022-12-05T01:02:24;28.30;;;10.07;;
70444;SDS011;57902;49.638;11.070;2022-12-05T01:04:50;26.35;;;10.35;;
70444;SDS011;57902;49.638;11.070;2022-12-05T01:07:17;28.23;;;9.98;;
70444;SDS011;57902;49.638;11.070;2022-12-05T01:09:43;29.42;;;11.07;;
70444;SDS011;57902;49.638;11.070;2022-12-05T01:12:10;26.95;;;10.75;;
70444;SDS011;57902;49.638;11.070;2022-12-05T01:14:36;26.70;;;10.05;;
70444;SDS011;57902;49.638;11.070;2022-12-05T01:17:02;26.60;;;10.88;;
70444;SDS011;57902;49.638;11.070;2022-12-05T01:19:30;26.75;;;9.93;;
70444;SDS011;57902;49.638;11.070;2022-12-05T01:21:57;27.80;;;10.32;;
70444;SDS011;57902;49.638;11.070;2022-12-05T01:24:25;25.98;;;10.52;;
70444;SDS011;57902;49.638;11.070;2022-12-05T01:26:52;27.45;;;10.98;;
70444;SDS011;57902;49.638;11.070;2022-12-05T01:29:20;27.67;;;10.27;;
70444;SDS011;57902;49.638;11.070;2022-12-05T01:31:48;26.60;;;10.38;;
70444;SDS011;57902;49.638;11.070;2022-12-05T01:34:15;32.22;;;11.82;;
70444;SDS011;57902;49.638;11.070;2022-12-05T01:36:43;27.48;;;10.10;;
70444;SDS011;57902;49.638;11.070;2022-12-05T01:39:10;28.83;;;10.52;;
70444;SDS011;57902;49.638;11.070;2022-12-05T01:41:39;38.38;;;11.25;;
70444;SDS011;57902;49.638;11.070;2022-12-05T01:46:43;29.83;;;10.52;;
70444;SDS011;57902;49.638;11.070;2022-12-05T01:49:15;27.98;;;10.82;;
70444;SDS011;57902;49.638;11.070;2022-12-05T01:51:47;24.52;;;10.18;;
70444;SDS011;57902;49.638;11.070;2022-12-05T01:54:15;27.50;;;10.88;;
70444;SDS011;57902;49.638;11.070;2022-12-05T01:56:45;29.83;;;11.07;;
70444;SDS011;57902;49.638;11.070;2022-12-05T01:59:16;29.38;;;11.52;;
70444;SDS011;57902;49.638;11.070;2022-12-05T02:01:45;31.85;;;11.45;;
70444;SDS011;57902;49.638;11.070;2022-12-05T02:04:12;30.85;;;10.48;;
70444;SDS011;57902;49.638;11.070;2022-12-05T02:06:39;27.73;;;10.95;;
70444;SDS011;57902;49.638;11.070;2022-12-05T02:09:06;25.58;;;10.93;;
70444;SDS011;57902;49.638;11.070;2022-12-05T02:11:32;30.98;;;10.68;;
70444;SDS011;57902;49.638;11.070;2022-12-05T02:14:06;29.08;;;10.77;;
70444;SDS011;57902;49.638;11.070;2022-12-05T02:27:48;31.90;;;11.10;;
70444;SDS011;57902;49.638;11.070;2022-12-05T02:30:19;28.58;;;10.80;;
70444;SDS011;57902;49.638;11.070;2022-12-05T02:38:49;29.27;;;10.98;;
70444;SDS011;57902;49.638;11.070;2022-12-05T02:47:24;32.40;;;11.25;;
70444;SDS011;57902;49.638;11.070;2022-12-05T02:49:54;31.23;;;11.00;;
70444;SDS011;57902;49.638;11.070;2022-12-05T02:52:23;34.08;;;11.88;;
70444;SDS011;57902;49.638;11.070;2022-12-05T02:54:52;34.53;;;10.85;;
70444;SDS011;57902;49.638;11.070;2022-12-05T02:59:47;30.27;;;11.15;;
70444;SDS011;57902;49.638;11.070;2022-12-05T03:02:24;32.22;;;11.10;;
70444;SDS011;57902;49.638;11.070;2022-12-05T03:04:54;32.78;;;11.32;;
70444;SDS011;57902;49.638;11.070;2022-12-05T03:07:22;30.75;;;11.32;;
70444;SDS011;57902;49.638;11.070;2022-12-05T03:09:55;34.28;;;11.25;;
70444;SDS011;57902;49.638;11.070;2022-12-05T03:12:28;28.23;;;10.77;;
70444;SDS011;57902;49.638;11.070;2022-12-05T03:15:03;33.42;;;11.27;;
70444;SDS011;57902;49.638;11.070;2022-12-05T03:17:35;32.35;;;10.10;;
70444;SDS011;57902;49.638;11.070;2022-12-05T03:20:12;31.17;;;11.52;;
70444;SDS011;57902;49.638;11.070;2022-12-05T03:22:50;33.80;;;11.57;;
70444;SDS011;57902;49.638;11.070;2022-12-05T03:25:22;33.13;;;11.15;;
70444;SDS011;57902;49.638;11.070;2022-12-05T03:27:52;31.10;;;11.10;;
70444;SDS011;57902;49.638;11.070;2022-12-05T03:30:27;32.45;;;12.27;;
70444;SDS011;57902;49.638;11.070;2022-12-05T03:35:40;29.67;;;11.25;;
70444;SDS011;57902;49.638;11.070;2022-12-05T03:38:23;34.20;;;12.02;;
70444;SDS011;57902;49.638;11.070;2022-12-05T03:41:13;29.70;;;9.85;;
70444;SDS011;57902;49.638;11.070;2022-12-05T03:49:08;32.55;;;10.80;;
70444;SDS011;57902;49.638;11.070;2022-12-05T03:51:41;27.45;;;9.80;;
70444;SDS011;57902;49.638;11.070;2022-12-05T03:54:25;29.40;;;9.70;;
70444;SDS011;57902;49.638;11.070;2022-12-05T03:56:58;22.52;;;8.15;;
70444;SDS011;57902;49.638;11.070;2022-12-05T04:02:20;25.65;;;9.50;;
70444;SDS011;57902;49.638;11.070;2022-12-05T04:04:55;28.08;;;9.60;;
70444;SDS011;57902;49.638;11.070;2022-12-05T04:07:27;26.48;;;9.00;;
70444;SDS011;57902;49.638;11.070;2022-12-05T04:09:56;25.65;;;9.68;;
70444;SDS011;57902;49.638;11.070;2022-12-05T04:12:28;26.45;;;9.50;;
70444;SDS011;57902;49.638;11.070;2022-12-05T04:15:01;29.83;;;10.18;;
70444;SDS011;57902;49.638;11.070;2022-12-05T04:17:49;26.33;;;9.57;;
70444;SDS011;57902;49.638;11.070;2022-12-05T04:20:20;25.70;;;9.02;;
70444;SDS011;57902;49.638;11.070;2022-12-05T04:23:12;25.10;;;9.77;;
70444;SDS011;57902;49.638;11.070;2022-12-05T04:25:59;23.05;;;9.32;;
70444;SDS011;57902;49.638;11.070;2022-12-05T04:28:37;26.20;;;8.75;;
70444;SDS011;57902;49.638;11.070;2022-12-05T04:31:13;24.10;;;8.38;;
70444;SDS011;57902;49.638;11.070;2022-12-05T04:33:49;25.85;;;8.90;;
70444;SDS011;57902;49.638;11.070;2022-12-05T04:36:21;20.55;;;8.77;;
70444;SDS011;57902;49.638;11.070;2022-12-05T04:38:59;20.70;;;8.60;;
70444;SDS011;57902;49.638;11.070;2022-12-05T04:41:32;24.05;;;8.45;;
70444;SDS011;57902;49.638;11.070;2022-12-05T04:44:04;22.80;;;8.35;;
70444;SDS011;57902;49.638;11.070;2022-12-05T04:46:34;20.65;;;8.10;;
70444;SDS011;57902;49.638;11.070;2022-12-05T04:49:04;22.85;;;8.40;;
70444;SDS011;57902;49.638;11.070;2022-12-05T04:51:33;22.48;;;8.68;;
70444;SDS011;57902;49.638;11.070;2022-12-05T04:54:11;24.27;;;8.60;;
70444;SDS011;57902;49.638;11.070;2022-12-05T04:56:43;22.45;;;8.40;;
70444;SDS011;57902;49.638;11.070;2022-12-05T04:59:13;20.90;;;7.95;;
70444;SDS011;57902;49.638;11.070;2022-12-05T05:01:41;19.80;;;7.60;;
70444;SDS011;57902;49.638;11.070;2022-12-05T05:04:13;23.48;;;8.57;;
70444;SDS011;57902;49.638;11.070;2022-12-05T05:06:44;24.42;;;9.13;;
70444;SDS011;57902;49.638;11.070;2022-12-05T05:09:13;22.70;;;8.52;;
70444;SDS011;57902;49.638;11.070;2022-12-05T05:11:40;23.27;;;8.48;;
70444;SDS011;57902;49.638;11.070;2022-12-05T05:14:06;19.30;;;7.60;;
70444;SDS011;57902;49.638;11.070;2022-12-05T05:16:34;21.55;;;8.23;;
70444;SDS011;57902;49.638;11.070;2022-12-05T05:19:05;22.85;;;8.55;;
70444;SDS011;57902;49.638;11.070;2022-12-05T05:21:34;18.58;;;7.68;;
70444;SDS011;57902;49.638;11.070;2022-12-05T05:24:03;16.92;;;6.90;;
70444;SDS011;57902;49.638;11.070;2022-12-05T05:26:30;16.95;;;7.18;;
70444;SDS011;57902;49.638;11.070;2022-12-05T05:28:59;17.17;;;7.15;;
70444;SDS011;57902;49.638;11.070;2022-12-05T05:31:26;16.02;;;6.70;;
70444;SDS011;57902;49.638;11.070;2022-12-05T05:33:53;15.70;;;6.38;;
70444;SDS011;57902;49.638;11.070;2022-12-05T05:38:50;16.63;;;6.70;;
70444;SDS011;57902;49.638;11.070;2022-12-05T05:41:19;17.83;;;6.07;;
70444;SDS011;57902;49.638;11.070;2022-12-05T05:43:50;14.32;;;5.25;;
70444;SDS011;57902;49.638;11.070;2022-12-05T05:46:18;12.35;;;5.78;;
70444;SDS011;57902;49.638;11.070;2022-12-05T05:48:47;13.75;;;5.68;;
70444;SDS011;57902;49.638;11.070;2022-12-05T05:51:14;14.23;;;6.25;;
70444;SDS011;57902;49.638;11.070;2022-12-05T05:53:41;12.80;;;5.10;;
70444;SDS011;57902;49.638;11.070;2022-12-05T05:56:10;11.70;;;4.60;;
70444;SDS011;57902;49.638;11.070;2022-12-05T05:58:46;14.25;;;5.28;;
70444;SDS011;57902;49.638;11.070;2022-12-05T06:01:17;14.30;;;5.80;;
70444;SDS011;57902;49.638;11.070;2022-12-05T06:03:47;12.68;;;4.70;;
70444;SDS011;57902;49.638;11.070;2022-12-05T06:06:16;13.20;;;4.82;;
70444;SDS011;57902;49.638;11.070;2022-12-05T06:08:43;13.43;;;5.03;;
70444;SDS011;57902;49.638;11.070;2022-12-05T06:11:15;11.85;;;4.53;;
70444;SDS011;57902;49.638;11.070;2022-12-05T06:13:51;14.40;;;4.97;;
70444;SDS011;57902;49.638;11.070;2022-12-05T06:16:19;10.75;;;4.35;;
70444;SDS011;57902;49.638;11.070;2022-12-05T06:18:46;11.40;;;4.72;;
70444;SDS011;57902;49.638;11.070;2022-12-05T06:21:14;11.85;;;4.45;;
70444;SDS011;57902;49.638;11.070;2022-12-05T06:23:41;12.38;;;4.25;;
70444;SDS011;57902;49.638;11.070;2022-12-05T06:26:12;12.13;;;4.43;;
70444;SDS011;57902;49.638;11.070;2022-12-05T06:28:41;12.35;;;4.20;;
70444;SDS011;57902;49.638;11.070;2022-12-05T06:31:11;10.23;;;3.80;;
70444;SDS011;57902;49.638;11.070;2022-12-05T06:33:40;9.70;;;4.18;;
70444;SDS011;57902;49.638;11.070;2022-12-05T06:36:08;10.20;;;4.22;;
70444;SDS011;57902;49.638;11.070;2022-12-05T06:38:36;12.07;;;4.63;;
70444;SDS011;57902;49.638;11.070;2022-12-05T06:41:08;10.70;;;4.20;;
70444;SDS011;57902;49.638;11.070;2022-12-05T06:43:36;13.90;;;4.13;;
70444;SDS011;57902;49.638;11.070;2022-12-05T06:46:03;12.05;;;4.78;;
70444;SDS011;57902;49.638;11.070;2022-12-05T06:48:31;14.75;;;4.75;;
70444;SDS011;57902;49.638;11.070;2022-12-05T06:50:57;10.63;;;3.97;;
70444;SDS011;57902;49.638;11.070;2022-12-05T06:53:24;12.18;;;4.82;;
70444;SDS011;57902;49.638;11.070;2022-12-05T06:55:57;14.27;;;5.05;;
70444;SDS011;57902;49.638;11.070;2022-12-05T06:58:26;11.05;;;4.43;;
70444;SDS011;57902;49.638;11.070;2022-12-05T07:00:53;12.40;;;4.68;;
70444;SDS011;57902;49.638;11.070;2022-12-05T07:03:39;12.38;;;4.97;;
70444;SDS011;57902;49.638;11.070;2022-12-05T07:06:06;11.15;;;4.53;;
70444;SDS011;57902;49.638;11.070;2022-12-05T07:08:33;12.98;;;4.88;;
70444;SDS011;57902;49.638;11.070;2022-12-05T07:11:00;12.50;;;5.15;;
70444;SDS011;57902;49.638;11.070;2022-12-05T07:13:27;13.18;;;5.43;;
70444;SDS011;57902;49.638;11.070;2022-12-05T07:15:54;12.32;;;5.60;;
70444;SDS011;57902;49.638;11.070;2022-12-05T07:18:20;13.35;;;5.07;;
70444;SDS011;57902;49.638;11.070;2022-12-05T07:20:54;13.80;;;5.45;;
70444;SDS011;57902;49.638;11.070;2022-12-05T07:23:40;12.82;;;4.93;;
70444;SDS011;57902;49.638;11.070;2022-12-05T07:26:10;13.77;;;5.43;;
70444;SDS011;57902;49.638;11.070;2022-12-05T07:28:38;22.13;;;8.70;;
70444;SDS011;57902;49.638;11.070;2022-12-05T07:31:05;18.88;;;7.65;;
70444;SDS011;57902;49.638;11.070;2022-12-05T07:33:34;17.40;;;6.13;;
70444;SDS011;57902;49.638;11.070;2022-12-05T07:36:02;17.77;;;6.30;;
70444;SDS011;57902;49.638;11.070;2022-12-05T07:38:34;17.13;;;6.18;;
70444;SDS011;57902;49.638;11.070;2022-12-05T07:41:04;16.63;;;6.30;;
70444;SDS011;57902;49.638;11.070;2022-12-05T07:43:38;15.68;;;6.55;;
70444;SDS011;57902;49.638;11.070;2022-12-05T07:46:05;17.65;;;6.47;;
70444;SDS011;57902;49.638;11.070;2022-12-05T07:48:33;20.08;;;5.97;;
70444;SDS011;57902;49.638;11.070;2022-12-05T07:51:00;16.50;;;5.63;;
70444;SDS011;57902;49.638;11.070;2022-12-05T07:53:28;21.70;;;7.55;;
70444;SDS011;57902;49.638;11.070;2022-12-05T07:56:00;19.13;;;6.60;;
70444;SDS011;57902;49.638;11.070;2022-12-05T07:58:28;17.77;;;6.03;;
70444;SDS011;57902;49.638;11.070;2022-12-05T08:00:55;17.23;;;5.82;;
70444;SDS011;57902;49.638;11.070;2022-12-05T08:03:22;18.42;;;6.47;;
70444;SDS011;57902;49.638;11.070;2022-12-05T08:05:48;18.58;;;6.57;;
70444;SDS011;57902;49.638;11.070;2022-12-05T08:08:15;21.15;;;6.82;;
70444;SDS011;57902;49.638;11.070;2022-12-05T08:10:41;21.58;;;7.20;;
70444;SDS011;57902;49.638;11.070;2022-12-05T08:13:08;18.75;;;6.72;;
70444;SDS011;57902;49.638;11.070;2022-12-05T08:15:34;23.75;;;7.35;;
70444;SDS011;57902;49.638;11.070;2022-12-05T08:18:02;21.90;;;6.90;;
70444;SDS011;57902;49.638;11.070;2022-12-05T08:20:28;22.13;;;7.18;;
70444;SDS011;57902;49.638;11.070;2022-12-05T08:22:55;20.05;;;7.03;;
70444;SDS011;57902;49.638;11.070;2022-12-05T08:25:22;20.80;;;7.10;;
70444;SDS011;57902;49.638;11.070;2022-12-05T08:27:48;18.75;;;7.03;;
70444;SDS011;57902;49.638;11.070;2022-12-05T08:30:15;19.95;;;6.93;;
70444;SDS011;57902;49.638;11.070;2022-12-05T08:32:41;19.10;;;6.93;;
70444;SDS011;57902;49.638;11.070;2022-12-05T08:35:08;21.33;;;6.68;;
70444;SDS011;57902;49.638;11.070;2022-12-05T08:37:35;20.95;;;6.60;;
70444;SDS011;57902;49.638;11.070;2022-12-05T08:40:02;21.02;;;6.85;;
70444;SDS011;57902;49.638;11.070;2022-12-05T08:42:29;21.90;;;7.28;;
70444;SDS011;57902;49.638;11.070;2022-12-05T08:44:55;25.13;;;7.78;;
70444;SDS011;57902;49.638;11.070;2022-12-05T08:47:22;22.08;;;7.45;;
70444;SDS011;57902;49.638;11.070;2022-12-05T08:49:48;22.25;;;7.75;;
70444;SDS011;57902;49.638;11.070;2022-12-05T08:52:15;20.92;;;7.00;;
70444;SDS011;57902;49.638;11.070;2022-12-05T08:54:41;21.13;;;7.63;;
70444;SDS011;57902;49.638;11.070;2022-12-05T08:57:08;22.30;;;6.85;;
70444;SDS011;57902;49.638;11.070;2022-12-05T08:59:34;19.90;;;6.60;;
70444;SDS011;57902;49.638;11.070;2022-12-05T09:02:00;22.50;;;7.78;;
70444;SDS011;57902;49.638;11.070;2022-12-05T09:04:27;21.55;;;7.35;;
70444;SDS011;57902;49.638;11.070;2022-12-05T09:06:53;19.23;;;6.75;;
70444;SDS011;57902;49.638;11.070;2022-12-05T09:09:20;20.05;;;7.35;;
70444;SDS011;57902;49.638;11.070;2022-12-05T09:11:46;23.80;;;8.02;;
70444;SDS011;57902;49.638;11.070;2022-12-05T09:14:16;20.55;;;7.47;;
70444;SDS011;57902;49.638;11.070;2022-12-05T09:16:43;23.23;;;7.88;;
70444;SDS011;57902;49.638;11.070;2022-12-05T09:19:12;24.88;;;8.32;;
70444;SDS011;57902;49.638;11.070;2022-12-05T09:21:42;22.15;;;7.50;;
70444;SDS011;57902;49.638;11.070;2022-12-05T09:24:11;20.35;;;7.43;;
70444;SDS011;57902;49.638;11.070;2022-12-05T09:26:38;22.77;;;7.38;;
70444;SDS011;57902;49.638;11.070;2022-12-05T09:29:05;22.13;;;7.05;;
70444;SDS011;57902;49.638;11.070;2022-12-05T09:31:39;23.88;;;7.97;;
70444;SDS011;57902;49.638;11.070;2022-12-05T09:34:08;23.52;;;7.97;;
70444;SDS011;57902;49.638;11.070;2022-12-05T09:36:34;25.02;;;8.45;;
70444;SDS011;57902;49.638;11.070;2022-12-05T09:39:03;24.33;;;8.35;;
70444;SDS011;57902;49.638;11.070;2022-12-05T09:49:56;23.52;;;7.88;;
70444;SDS011;57902;49.638;11.070;2022-12-05T09:52:31;21.60;;;7.28;;
70444;SDS011;57902;49.638;11.070;2022-12-05T09:55:05;30.75;;;10.30;;
70444;SDS011;57902;49.638;11.070;2022-12-05T09:57:39;24.60;;;8.25;;
70444;SDS011;57902;49.638;11.070;2022-12-05T10:00:10;26.13;;;8.48;;
70444;SDS011;57902;49.638;11.070;2022-12-05T10:17:08;20.15;;;7.03;;
70444;SDS011;57902;49.638;11.070;2022-12-05T10:19:48;21.15;;;7.50;;
70444;SDS011;57902;49.638;11.070;2022-12-05T10:22:21;21.85;;;7.53;;
70444;SDS011;57902;49.638;11.070;2022-12-05T10:24:54;20.75;;;7.05;;
70444;SDS011;57902;49.638;11.070;2022-12-05T10:30:12;22.80;;;8.40;;
70444;SDS011;57902;49.638;11.070;2022-12-05T10:35:36;22.50;;;7.25;;
70444;SDS011;57902;49.638;11.070;2022-12-05T10:38:05;19.65;;;6.68;;
70444;SDS011;57902;49.638;11.070;2022-12-05T10:40:49;21.95;;;7.22;;
70444;SDS011;57902;49.638;11.070;2022-12-05T10:43:22;21.30;;;7.78;;
70444;SDS011;57902;49.638;11.070;2022-12-05T10:45:51;20.00;;;7.32;;
70444;SDS011;57902;49.638;11.070;2022-12-05T10:48:18;21.80;;;7.40;;
70444;SDS011;57902;49.638;11.070;2022-12-05T10:50:47;19.65;;;6.82;;
70444;SDS011;57902;49.638;11.070;2022-12-05T10:53:16;21.48;;;7.43;;
70444;SDS011;57902;49.638;11.070;2022-12-05T10:55:46;22.80;;;8.07;;
70444;SDS011;57902;49.638;11.070;2022-12-05T10:58:34;20.92;;;7.28;;
70444;SDS011;57902;49.638;11.070;2022-12-05T11:01:08;25.40;;;7.65;;
70444;SDS011;57902;49.638;11.070;2022-12-05T11:03:40;24.42;;;8.23;;
70444;SDS011;57902;49.638;11.070;2022-12-05T11:06:22;22.40;;;7.65;;
70444;SDS011;57902;49.638;11.070;2022-12-05T11:08:55;23.17;;;8.45;;
70444;SDS011;57902;49.638;11.070;2022-12-05T11:11:31;20.15;;;7.65;;
70444;SDS011;57902;49.638;11.070;2022-12-05T11:14:03;24.17;;;7.80;;
70444;SDS011;57902;49.638;11.070;2022-12-05T11:16:36;22.50;;;7.72;;
70444;SDS011;57902;49.638;11.070;2022-12-05T11:22:00;24.70;;;7.93;;
70444;SDS011;57902;49.638;11.070;2022-12-05T11:24:28;32.97;;;12.00;;
70444;SDS011;57902;49.638;11.070;2022-12-05T11:26:57;27.88;;;9.10;;
70444;SDS011;57902;49.638;11.070;2022-12-05T11:29:35;23.73;;;8.68;;
70444;SDS011;57902;49.638;11.070;2022-12-05T11:32:04;24.58;;;8.25;;
70444;SDS011;57902;49.638;11.070;2022-12-05T11:34:46;22.73;;;7.50;;
70444;SDS011;57902;49.638;11.070;2022-12-05T11:37:19;23.23;;;8.45;;
70444;SDS011;57902;49.638;11.070;2022-12-05T11:39:50;22.52;;;8.63;;
70444;SDS011;57902;49.638;11.070;2022-12-05T11:42:22;25.50;;;8.30;;
70444;SDS011;57902;49.638;11.070;2022-12-05T11:45:01;22.38;;;8.02;;
70444;SDS011;57902;49.638;11.070;2022-12-05T11:47:45;23.50;;;8.57;;
70444;SDS011;57902;49.638;11.070;2022-12-05T11:58:24;30.80;;;8.68;;
70444;SDS011;57902;49.638;11.070;2022-12-05T12:04:32;22.45;;;7.53;;
70444;SDS011;57902;49.638;11.070;2022-12-05T12:07:41;22.92;;;7.97;;
70444;SDS011;57902;49.638;11.070;2022-12-05T12:13:04;24.48;;;8.48;;
70444;SDS011;57902;49.638;11.070;2022-12-05T12:27:05;23.52;;;7.35;;
70444;SDS011;57902;49.638;11.070;2022-12-05T12:29:46;24.63;;;8.30;;
70444;SDS011;57902;49.638;11.070;2022-12-05T12:35:21;28.33;;;8.40;;
70444;SDS011;57902;49.638;11.070;2022-12-05T12:52:25;21.88;;;7.80;;
70444;SDS011;57902;49.638;11.070;2022-12-05T12:55:05;21.48;;;8.05;;
70444;SDS011;57902;49.638;11.070;2022-12-05T12:57:59;23.60;;;7.90;;
70444;SDS011;57902;49.638;11.070;2022-12-05T13:00:33;24.65;;;7.82;;
70444;SDS011;57902;49.638;11.070;2022-12-05T13:03:07;20.27;;;7.38;;
70444;SDS011;57902;49.638;11.070;2022-12-05T13:05:49;23.73;;;7.35;;
70444;SDS011;57902;49.638;11.070;2022-12-05T13:08:28;25.30;;;6.97;;
70444;SDS011;57902;49.638;11.070;2022-12-05T13:11:01;19.33;;;7.57;;
70444;SDS011;57902;49.638;11.070;2022-12-05T13:13:32;20.23;;;6.97;;
70444;SDS011;57902;49.638;11.070;2022-12-05T13:16:03;19.90;;;6.63;;
70444;SDS011;57902;49.638;11.070;2022-12-05T13:18:33;22.02;;;7.22;;
70444;SDS011;57902;49.638;11.070;2022-12-05T13:21:02;30.75;;;10.48;;
70444;SDS011;57902;49.638;11.070;2022-12-05T13:23:45;19.42;;;6.95;;
70444;SDS011;57902;49.638;11.070;2022-12-05T13:26:17;19.95;;;7.20;;
70444;SDS011;57902;49.638;11.070;2022-12-05T13:31:14;20.80;;;7.00;;
70444;SDS011;57902;49.638;11.070;2022-12-05T13:33:47;22.55;;;7.85;;
70444;SDS011;57902;49.638;11.070;2022-12-05T13:36:15;23.38;;;7.05;;
70444;SDS011;57902;49.638;11.070;2022-12-05T13:39:05;16.75;;;6.10;;
70444;SDS011;57902;49.638;11.070;2022-12-05T13:41:59;25.40;;;7.22;;
70444;SDS011;57902;49.638;11.070;2022-12-05T13:44:42;19.77;;;6.25;;
70444;SDS011;57902;49.638;11.070;2022-12-05T13:47:31;20.15;;;7.68;;
70444;SDS011;57902;49.638;11.070;2022-12-05T13:50:18;20.38;;;6.90;;
70444;SDS011;57902;49.638;11.070;2022-12-05T13:52:51;20.80;;;7.25;;
70444;SDS011;57902;49.638;11.070;2022-12-05T13:55:25;19.25;;;7.80;;
70444;SDS011;57902;49.638;11.070;2022-12-05T13:58:01;19.73;;;7.68;;
70444;SDS011;57902;49.638;11.070;2022-12-05T14:00:50;20.95;;;6.85;;
70444;SDS011;57902;49.638;11.070;2022-12-05T14:06:54;17.20;;;6.75;;
70444;SDS011;57902;49.638;11.070;2022-12-05T14:09:26;17.98;;;6.65;;
70444;SDS011;57902;49.638;11.070;2022-12-05T14:17:28;16.77;;;6.28;;
70444;SDS011;57902;49.638;11.070;2022-12-05T14:20:17;18.02;;;6.63;;
70444;SDS011;57902;49.638;11.070;2022-12-05T14:25:16;15.98;;;5.72;;
70444;SDS011;57902;49.638;11.070;2022-12-05T14:28:38;16.92;;;6.15;;
70444;SDS011;57902;49.638;11.070;2022-12-05T14:31:19;18.10;;;6.15;;
70444;SDS011;57902;49.638;11.070;2022-12-05T14:34:04;16.13;;;5.82;;
70444;SDS011;57902;49.638;11.070;2022-12-05T14:36:50;26.00;;;8.63;;
70444;SDS011;57902;49.638;11.070;2022-12-05T14:39:27;18.25;;;6.65;;
70444;SDS011;57902;49.638;11.070;2022-12-05T14:41:58;16.42;;;6.45;;
70444;SDS011;57902;49.638;11.070;2022-12-05T14:44:26;23.00;;;6.95;;
70444;SDS011;57902;49.638;11.070;2022-12-05T14:47:00;24.85;;;7.68;;
70444;SDS011;57902;49.638;11.070;2022-12-05T14:49:34;23.45;;;6.70;;
70444;SDS011;57902;49.638;11.070;2022-12-05T14:55:11;19.85;;;7.70;;
70444;SDS011;57902;49.638;11.070;2022-12-05T14:57:52;18.85;;;7.18;;
70444;SDS011;57902;49.638;11.070;2022-12-05T15:00:20;28.73;;;10.50;;
70444;SDS011;57902;49.638;11.070;2022-12-05T15:02:49;26.83;;;9.13;;
70444;SDS011;57902;49.638;11.070;2022-12-05T15:05:28;23.27;;;8.90;;
70444;SDS011;57902;49.638;11.070;2022-12-05T15:07:57;23.65;;;8.77;;
70444;SDS011;57902;49.638;11.070;2022-12-05T15:10:30;23.38;;;7.95;;
70444;SDS011;57902;49.638;11.070;2022-12-05T15:13:02;20.58;;;7.00;;
70444;SDS011;57902;49.638;11.070;2022-12-05T15:15:40;17.75;;;6.63;;
70444;SDS011;57902;49.638;11.070;2022-12-05T15:20:58;35.33;;;11.20;;
70444;SDS011;57902;49.638;11.070;2022-12-05T15:31:47;26.55;;;9.13;;
70444;SDS011;57902;49.638;11.070;2022-12-05T15:34:26;24.85;;;9.00;;
70444;SDS011;57902;49.638;11.070;2022-12-05T15:37:19;20.83;;;7.55;;
70444;SDS011;57902;49.638;11.070;2022-12-05T15:42:38;22.05;;;7.97;;
70444;SDS011;57902;49.638;11.070;2022-12-05T15:47:37;16.30;;;6.50;;
70444;SDS011;57902;49.638;11.070;2022-12-05T15:50:05;23.25;;;8.35;;
70444;SDS011;57902;49.638;11.070;2022-12-05T15:52:44;21.10;;;8.02;;
70444;SDS011;57902;49.638;11.070;2022-12-05T15:55:20;20.30;;;7.22;;
70444;SDS011;57902;49.638;11.070;2022-12-05T15:58:00;18.15;;;7.13;;
70444;SDS011;57902;49.638;11.070;2022-12-05T16:00:39;21.70;;;8.30;;
70444;SDS011;57902;49.638;11.070;2022-12-05T16:03:19;19.95;;;7.60;;
70444;SDS011;57902;49.638;11.070;2022-12-05T16:05:52;21.77;;;8.23;;
70444;SDS011;57902;49.638;11.070;2022-12-05T16:08:22;20.42;;;9.50;;
70444;SDS011;57902;49.638;11.070;2022-12-05T16:10:50;22.48;;;9.90;;
70444;SDS011;57902;49.638;11.070;2022-12-05T16:13:18;22.60;;;8.73;;
70444;SDS011;57902;49.638;11.070;2022-12-05T16:15:50;21.80;;;8.40;;
70444;SDS011;57902;49.638;11.070;2022-12-05T16:18:29;17.77;;;7.00;;
70444;SDS011;57902;49.638;11.070;2022-12-05T16:20:57;20.08;;;7.20;;
70444;SDS011;57902;49.638;11.070;2022-12-05T16:23:28;18.80;;;7.15;;
70444;SDS011;57902;49.638;11.070;2022-12-05T16:28:39;13.80;;;6.03;;
70444;SDS011;57902;49.638;11.070;2022-12-05T16:31:05;12.77;;;5.32;;
70444;SDS011;57902;49.638;11.070;2022-12-05T16:33:32;15.98;;;5.57;;
70444;SDS011;57902;49.638;11.070;2022-12-05T16:36:07;14.32;;;5.93;;
70444;SDS011;57902;49.638;11.070;2022-12-05T16:38:35;12.57;;;5.10;;
70444;SDS011;57902;49.638;11.070;2022-12-05T16:41:03;14.85;;;5.50;;
70444;SDS011;57902;49.638;11.070;2022-12-05T16:48:44;10.18;;;4.60;;
70444;SDS011;57902;49.638;11.070;2022-12-05T16:51:24;16.40;;;4.93;;
70444;SDS011;57902;49.638;11.070;2022-12-05T16:53:52;11.13;;;4.53;;
70444;SDS011;57902;49.638;11.070;2022-12-05T16:56:29;12.07;;;4.15;;
70444;SDS011;57902;49.638;11.070;2022-12-05T16:59:01;14.38;;;5.55;;
70444;SDS011;57902;49.638;11.070;2022-12-05T17:01:29;15.07;;;5.63;;
70444;SDS011;57902;49.638;11.070;2022-12-05T17:04:02;13.15;;;5.03;;
70444;SDS011;57902;49.638;11.070;2022-12-05T17:06:29;17.83;;;5.78;;
70444;SDS011;57902;49.638;11.070;2022-12-05T17:08:55;15.50;;;5.53;;
70444;SDS011;57902;49.638;11.070;2022-12-05T17:11:26;21.35;;;7.32;;
70444;SDS011;57902;49.638;11.070;2022-12-05T17:13:56;31.45;;;10.13;;
70444;SDS011;57902;49.638;11.070;2022-12-05T17:16:23;23.38;;;8.25;;
70444;SDS011;57902;49.638;11.070;2022-12-05T17:18:51;12.25;;;4.80;;
70444;SDS011;57902;49.638;11.070;2022-12-05T17:21:19;17.48;;;6.57;;
70444;SDS011;57902;49.638;11.070;2022-12-05T17:23:49;22.02;;;8.07;;